Abbott, Arkansas
Current Conditions -  °F | °C
As of 3:55 AM on Saturday 01 Nov 2014 (Local Time) from KRKR Reporting Station
Clear Clear  
Wind Chill: 33°   Ceiling: Unl
Heat Index: 33°   Visibility: 10mi
Dew Point: 27°   Wind: 3mph
Humidity: 81%   Direction: 40°NE
Pressure: 30.43"   Gusts: NA
Location:  35.0213°N, 94.2023°W
Report Text: KRKR 010855Z AUTO 04003KT 10SM CLR 00/M03 A3043 RMK AO2 T00041026
Loading
Personal Weather Stations






























Interactive Weather Map
Tropical Storm Tracking
New forecast layout! Learn more

10-Day Weather Forecast

Advertisements
Track Severe Weather on mobile